Airfield :
LOGIN :

Register | Disclaimer

   EN    FR    IT 

 










Legend :    VFR   Marginal VFR   IFR   Intensive IFR   Very Intensive IFR
Visi :
Ceiling :
>= 8 km
>= 3000ft
5 to 8 km
1000 to 3000 ft
1500m to 5 km
500 to 1000 ft
800 to 1500m
200 to 500 ft
< 800m
< 200 ft
Symbols :   Thunderstorms  Fog  Heavy snow  Heavy precipitations  Wind > 20 kt
SIGMETs :     Misc.  Thunderstorms  Icing  Turbulence  Mountain Waves  Volcanic Ashes






- Airport Elevation : 37 ft
- IATA code : HLY


EGOV - RAF Valley

CURRENT METAR :
  • 202220Z AUTO 25014KT 9999 SCT060/// 12/09 Q1017

EXPIRED METARs :
  • 202150Z AUTO 25013KT 9999 NCD 12/10 Q1016
  • 202120Z AUTO 23011KT 9999 FEW048/// 12/10 Q1016
  • 202050Z AUTO 24012KT 9999 BKN062/// 13/10 Q1015
  • 202020Z AUTO 23012KT 9999 SCT047/// 12/10 Q1015
  • 201950Z AUTO 23013KT 9999 OVC047/// 13/10 Q1014

Expired Forecast.



MET'MAP, your aeronautical weather chart ! - Copyright ORBIFLY December 2007 - Disclaimer

ORBIFLY MET'MAP TEAM :

Programming & Development : Alexandra Zaïnal
Original concept : Baudouin d'Aumeries
Technical & hardware support : Manuel Goepfert
Assistance : Marc-Olivier Méhu

Contact : metmap@orbifly.com




SOURCES & CREDITS :

   NOAA